sensor_id;sensor_type;location;lat;lon;timestamp;temperature;humidity
20070;DHT22;10195;50.868;4.382;2023-11-19T00:02:23;14.00;99.90
20070;DHT22;10195;50.868;4.382;2023-11-19T00:04:49;14.00;99.90
20070;DHT22;10195;50.868;4.382;2023-11-19T00:07:15;14.00;99.90
20070;DHT22;10195;50.868;4.382;2023-11-19T00:09:41;14.00;99.90
20070;DHT22;10195;50.868;4.382;2023-11-19T00:12:07;14.10;99.90
20070;DHT22;10195;50.868;4.382;2023-11-19T00:14:33;14.10;99.90
20070;DHT22;10195;50.868;4.382;2023-11-19T00:17:00;14.10;99.90
20070;DHT22;10195;50.868;4.382;2023-11-19T00:19:26;14.10;99.90
20070;DHT22;10195;50.868;4.382;2023-11-19T00:21:52;14.10;99.90
20070;DHT22;10195;50.868;4.382;2023-11-19T00:24:18;14.00;99.90
20070;DHT22;10195;50.868;4.382;2023-11-19T00:26:44;14.00;99.90
20070;DHT22;10195;50.868;4.382;2023-11-19T00:29:09;14.00;99.90
20070;DHT22;10195;50.868;4.382;2023-11-19T00:31:35;14.00;99.90
20070;DHT22;10195;50.868;4.382;2023-11-19T00:34:01;14.00;99.90
20070;DHT22;10195;50.868;4.382;2023-11-19T00:36:28;14.00;99.90
20070;DHT22;10195;50.868;4.382;2023-11-19T00:38:54;14.10;99.90
20070;DHT22;10195;50.868;4.382;2023-11-19T00:41:20;14.10;99.90
20070;DHT22;10195;50.868;4.382;2023-11-19T00:43:46;14.20;99.90
20070;DHT22;10195;50.868;4.382;2023-11-19T00:46:12;14.20;99.90
20070;DHT22;10195;50.868;4.382;2023-11-19T00:48:39;14.10;99.90
20070;DHT22;10195;50.868;4.382;2023-11-19T00:51:05;14.10;99.90
20070;DHT22;10195;50.868;4.382;2023-11-19T00:53:30;14.00;99.90
20070;DHT22;10195;50.868;4.382;2023-11-19T00:55:57;14.10;99.90
20070;DHT22;10195;50.868;4.382;2023-11-19T00:58:23;14.10;99.90
20070;DHT22;10195;50.868;4.382;2023-11-19T01:00:49;14.10;99.90
20070;DHT22;10195;50.868;4.382;2023-11-19T01:03:15;14.10;99.90
20070;DHT22;10195;50.868;4.382;2023-11-19T01:05:41;14.10;99.90
20070;DHT22;10195;50.868;4.382;2023-11-19T01:08:07;14.10;99.90
20070;DHT22;10195;50.868;4.382;2023-11-19T01:10:33;14.00;99.90
20070;DHT22;10195;50.868;4.382;2023-11-19T01:12:59;14.10;99.90
20070;DHT22;10195;50.868;4.382;2023-11-19T01:15:25;14.10;99.90
20070;DHT22;10195;50.868;4.382;2023-11-19T01:17:51;14.10;99.90
20070;DHT22;10195;50.868;4.382;2023-11-19T01:20:17;14.20;99.90
20070;DHT22;10195;50.868;4.382;2023-11-19T01:22:43;14.20;99.90
20070;DHT22;10195;50.868;4.382;2023-11-19T01:25:09;14.20;99.90
20070;DHT22;10195;50.868;4.382;2023-11-19T01:27:34;14.30;99.90
20070;DHT22;10195;50.868;4.382;2023-11-19T01:30:04;14.30;99.90
20070;DHT22;10195;50.868;4.382;2023-11-19T01:32:30;14.30;99.90
20070;DHT22;10195;50.868;4.382;2023-11-19T01:34:55;14.40;99.90
20070;DHT22;10195;50.868;4.382;2023-11-19T01:37:21;14.40;99.90
20070;DHT22;10195;50.868;4.382;2023-11-19T01:39:47;14.40;99.90
20070;DHT22;10195;50.868;4.382;2023-11-19T01:42:13;14.30;99.90
20070;DHT22;10195;50.868;4.382;2023-11-19T01:44:38;14.30;99.90
20070;DHT22;10195;50.868;4.382;2023-11-19T01:47:04;14.20;99.90
20070;DHT22;10195;50.868;4.382;2023-11-19T01:49:32;14.10;99.90
20070;DHT22;10195;50.868;4.382;2023-11-19T01:51:58;14.10;99.90
20070;DHT22;10195;50.868;4.382;2023-11-19T01:54:25;14.10;99.90
20070;DHT22;10195;50.868;4.382;2023-11-19T01:56:53;14.10;99.90
20070;DHT22;10195;50.868;4.382;2023-11-19T01:59:19;14.10;99.90
20070;DHT22;10195;50.868;4.382;2023-11-19T02:01:52;14.20;99.90
20070;DHT22;10195;50.868;4.382;2023-11-19T02:04:18;14.00;99.90
20070;DHT22;10195;50.868;4.382;2023-11-19T02:06:45;14.00;99.90
20070;DHT22;10195;50.868;4.382;2023-11-19T02:09:13;14.00;99.90
20070;DHT22;10195;50.868;4.382;2023-11-19T02:11:42;13.80;99.90
20070;DHT22;10195;50.868;4.382;2023-11-19T02:14:08;13.80;99.90
20070;DHT22;10195;50.868;4.382;2023-11-19T02:16:33;13.70;99.90
20070;DHT22;10195;50.868;4.382;2023-11-19T02:18:59;13.70;99.90
20070;DHT22;10195;50.868;4.382;2023-11-19T02:21:25;13.70;99.90
20070;DHT22;10195;50.868;4.382;2023-11-19T02:23:51;13.70;99.90
20070;DHT22;10195;50.868;4.382;2023-11-19T02:26:39;13.80;99.90
20070;DHT22;10195;50.868;4.382;2023-11-19T02:29:05;13.80;99.90
20070;DHT22;10195;50.868;4.382;2023-11-19T02:31:32;13.90;99.90
20070;DHT22;10195;50.868;4.382;2023-11-19T02:33:59;13.80;99.90
20070;DHT22;10195;50.868;4.382;2023-11-19T02:36:26;13.90;99.90
20070;DHT22;10195;50.868;4.382;2023-11-19T02:38:51;13.80;99.90
20070;DHT22;10195;50.868;4.382;2023-11-19T02:41:20;13.80;99.90
20070;DHT22;10195;50.868;4.382;2023-11-19T02:43:46;13.80;99.90
20070;DHT22;10195;50.868;4.382;2023-11-19T02:46:14;13.80;99.90
20070;DHT22;10195;50.868;4.382;2023-11-19T02:48:39;13.70;99.90
20070;DHT22;10195;50.868;4.382;2023-11-19T02:51:06;13.80;99.90
20070;DHT22;10195;50.868;4.382;2023-11-19T02:53:35;13.70;99.90
20070;DHT22;10195;50.868;4.382;2023-11-19T02:56:00;13.70;99.90
20070;DHT22;10195;50.868;4.382;2023-11-19T02:58:32;13.70;99.90
20070;DHT22;10195;50.868;4.382;2023-11-19T03:00:57;13.60;99.90
20070;DHT22;10195;50.868;4.382;2023-11-19T03:03:25;13.70;99.90
20070;DHT22;10195;50.868;4.382;2023-11-19T03:05:57;13.80;99.90
20070;DHT22;10195;50.868;4.382;2023-11-19T03:08:22;13.60;99.90
20070;DHT22;10195;50.868;4.382;2023-11-19T03:10:48;13.60;99.90
20070;DHT22;10195;50.868;4.382;2023-11-19T03:13:15;13.50;99.90
20070;DHT22;10195;50.868;4.382;2023-11-19T03:15:41;13.50;99.90
20070;DHT22;10195;50.868;4.382;2023-11-19T03:18:07;13.40;99.90
20070;DHT22;10195;50.868;4.382;2023-11-19T03:20:33;13.40;99.90
20070;DHT22;10195;50.868;4.382;2023-11-19T03:22:59;13.30;99.90
20070;DHT22;10195;50.868;4.382;2023-11-19T03:25:27;13.30;99.90
20070;DHT22;10195;50.868;4.382;2023-11-19T03:27:58;13.30;99.90
20070;DHT22;10195;50.868;4.382;2023-11-19T03:30:24;13.30;99.90
20070;DHT22;10195;50.868;4.382;2023-11-19T03:32:50;13.20;99.90
20070;DHT22;10195;50.868;4.382;2023-11-19T03:35:16;13.20;99.90
20070;DHT22;10195;50.868;4.382;2023-11-19T03:37:41;13.20;99.90
20070;DHT22;10195;50.868;4.382;2023-11-19T03:40:09;13.20;99.90
20070;DHT22;10195;50.868;4.382;2023-11-19T03:42:35;13.10;99.90
20070;DHT22;10195;50.868;4.382;2023-11-19T03:45:01;13.00;99.90
20070;DHT22;10195;50.868;4.382;2023-11-19T03:47:29;13.00;99.90
20070;DHT22;10195;50.868;4.382;2023-11-19T03:49:54;13.00;99.90
20070;DHT22;10195;50.868;4.382;2023-11-19T03:52:20;12.90;99.90
20070;DHT22;10195;50.868;4.382;2023-11-19T03:54:46;13.00;99.90
20070;DHT22;10195;50.868;4.382;2023-11-19T03:57:15;12.90;99.90
20070;DHT22;10195;50.868;4.382;2023-11-19T03:59:44;12.90;99.90
20070;DHT22;10195;50.868;4.382;2023-11-19T04:02:09;12.90;99.90
20070;DHT22;10195;50.868;4.382;2023-11-19T04:04:35;12.80;99.90
20070;DHT22;10195;50.868;4.382;2023-11-19T04:07:01;12.80;99.90
20070;DHT22;10195;50.868;4.382;2023-11-19T04:09:29;12.80;99.90
20070;DHT22;10195;50.868;4.382;2023-11-19T04:11:55;12.90;99.90
20070;DHT22;10195;50.868;4.382;2023-11-19T04:14:21;12.90;99.90
20070;DHT22;10195;50.868;4.382;2023-11-19T04:16:47;13.00;99.90
20070;DHT22;10195;50.868;4.382;2023-11-19T04:19:13;12.90;99.90
20070;DHT22;10195;50.868;4.382;2023-11-19T04:21:41;12.90;99.90
20070;DHT22;10195;50.868;4.382;2023-11-19T04:24:11;12.90;99.90
20070;DHT22;10195;50.868;4.382;2023-11-19T04:26:44;13.00;99.90
20070;DHT22;10195;50.868;4.382;2023-11-19T04:29:14;13.00;99.90
20070;DHT22;10195;50.868;4.382;2023-11-19T04:31:41;12.90;99.90
20070;DHT22;10195;50.868;4.382;2023-11-19T04:34:07;13.00;99.90
20070;DHT22;10195;50.868;4.382;2023-11-19T04:36:33;13.00;99.90
20070;DHT22;10195;50.868;4.382;2023-11-19T04:39:00;13.00;99.90
20070;DHT22;10195;50.868;4.382;2023-11-19T04:41:26;12.90;99.90
20070;DHT22;10195;50.868;4.382;2023-11-19T04:43:55;12.90;99.90
20070;DHT22;10195;50.868;4.382;2023-11-19T04:46:21;12.80;99.90
20070;DHT22;10195;50.868;4.382;2023-11-19T04:48:47;12.80;99.90
20070;DHT22;10195;50.868;4.382;2023-11-19T04:51:13;12.80;99.90
20070;DHT22;10195;50.868;4.382;2023-11-19T04:53:38;12.80;99.90
20070;DHT22;10195;50.868;4.382;2023-11-19T04:56:08;12.70;99.90
20070;DHT22;10195;50.868;4.382;2023-11-19T04:58:34;12.70;99.90
20070;DHT22;10195;50.868;4.382;2023-11-19T05:01:01;12.70;99.90
20070;DHT22;10195;50.868;4.382;2023-11-19T05:03:27;12.70;99.90
20070;DHT22;10195;50.868;4.382;2023-11-19T05:05:52;12.70;99.90
20070;DHT22;10195;50.868;4.382;2023-11-19T05:08:19;12.70;99.90
20070;DHT22;10195;50.868;4.382;2023-11-19T05:10:44;12.70;99.90
20070;DHT22;10195;50.868;4.382;2023-11-19T05:13:10;12.70;99.90
20070;DHT22;10195;50.868;4.382;2023-11-19T05:15:36;12.70;99.90
20070;DHT22;10195;50.868;4.382;2023-11-19T05:18:02;12.70;99.90
20070;DHT22;10195;50.868;4.382;2023-11-19T05:20:27;12.70;99.90
20070;DHT22;10195;50.868;4.382;2023-11-19T05:22:53;12.60;99.90
20070;DHT22;10195;50.868;4.382;2023-11-19T05:25:18;12.60;99.90
20070;DHT22;10195;50.868;4.382;2023-11-19T05:27:45;12.50;99.90
20070;DHT22;10195;50.868;4.382;2023-11-19T05:30:11;12.50;99.90
20070;DHT22;10195;50.868;4.382;2023-11-19T05:32:37;12.50;99.90
20070;DHT22;10195;50.868;4.382;2023-11-19T05:35:03;12.60;99.90
20070;DHT22;10195;50.868;4.382;2023-11-19T05:37:29;12.50;99.90
20070;DHT22;10195;50.868;4.382;2023-11-19T05:39:54;12.50;99.90
20070;DHT22;10195;50.868;4.382;2023-11-19T05:42:20;12.50;99.90
20070;DHT22;10195;50.868;4.382;2023-11-19T05:44:46;12.50;99.90
20070;DHT22;10195;50.868;4.382;2023-11-19T05:47:11;12.60;99.90
20070;DHT22;10195;50.868;4.382;2023-11-19T05:49:37;12.60;99.90
20070;DHT22;10195;50.868;4.382;2023-11-19T05:52:03;12.60;99.90
20070;DHT22;10195;50.868;4.382;2023-11-19T05:54:32;12.60;99.90
20070;DHT22;10195;50.868;4.382;2023-11-19T05:57:04;12.60;99.90
20070;DHT22;10195;50.868;4.382;2023-11-19T05:59:29;12.60;99.90
20070;DHT22;10195;50.868;4.382;2023-11-19T06:01:57;12.50;99.90
20070;DHT22;10195;50.868;4.382;2023-11-19T06:04:23;12.50;99.90
20070;DHT22;10195;50.868;4.382;2023-11-19T06:06:48;12.50;99.90
20070;DHT22;10195;50.868;4.382;2023-11-19T06:09:14;12.40;99.90
20070;DHT22;10195;50.868;4.382;2023-11-19T06:11:40;12.40;99.90
20070;DHT22;10195;50.868;4.382;2023-11-19T06:14:06;12.30;99.90
20070;DHT22;10195;50.868;4.382;2023-11-19T06:16:32;12.30;99.90
20070;DHT22;10195;50.868;4.382;2023-11-19T06:18:58;12.30;99.90
20070;DHT22;10195;50.868;4.382;2023-11-19T06:21:24;12.30;99.90
20070;DHT22;10195;50.868;4.382;2023-11-19T06:23:50;12.20;99.90
20070;DHT22;10195;50.868;4.382;2023-11-19T06:26:17;12.20;99.90
20070;DHT22;10195;50.868;4.382;2023-11-19T06:28:43;12.20;99.90
20070;DHT22;10195;50.868;4.382;2023-11-19T06:31:09;12.10;99.90
20070;DHT22;10195;50.868;4.382;2023-11-19T06:33:35;12.10;99.90
20070;DHT22;10195;50.868;4.382;2023-11-19T06:36:00;12.10;99.90
20070;DHT22;10195;50.868;4.382;2023-11-19T06:38:26;12.10;99.90
20070;DHT22;10195;50.868;4.382;2023-11-19T06:40:52;12.10;99.90
20070;DHT22;10195;50.868;4.382;2023-11-19T06:43:17;12.00;99.90
20070;DHT22;10195;50.868;4.382;2023-11-19T06:45:43;12.10;99.90
20070;DHT22;10195;50.868;4.382;2023-11-19T06:48:09;12.10;99.90
20070;DHT22;10195;50.868;4.382;2023-11-19T06:50:35;12.00;99.90
20070;DHT22;10195;50.868;4.382;2023-11-19T06:53:00;12.00;99.90
20070;DHT22;10195;50.868;4.382;2023-11-19T06:55:26;12.00;99.90
20070;DHT22;10195;50.868;4.382;2023-11-19T06:57:52;12.00;99.90
20070;DHT22;10195;50.868;4.382;2023-11-19T07:00:18;12.00;99.90
20070;DHT22;10195;50.868;4.382;2023-11-19T07:02:44;12.00;99.90
20070;DHT22;10195;50.868;4.382;2023-11-19T07:05:10;11.90;99.90
20070;DHT22;10195;50.868;4.382;2023-11-19T07:07:37;11.90;99.90
20070;DHT22;10195;50.868;4.382;2023-11-19T07:10:03;11.90;99.90
20070;DHT22;10195;50.868;4.382;2023-11-19T07:12:30;11.90;99.90
20070;DHT22;10195;50.868;4.382;2023-11-19T07:14:55;11.90;99.90
20070;DHT22;10195;50.868;4.382;2023-11-19T07:17:21;12.00;99.90
20070;DHT22;10195;50.868;4.382;2023-11-19T07:19:52;12.00;99.90
20070;DHT22;10195;50.868;4.382;2023-11-19T07:22:17;12.00;99.90
20070;DHT22;10195;50.868;4.382;2023-11-19T07:24:43;12.10;99.90
20070;DHT22;10195;50.868;4.382;2023-11-19T07:27:09;12.10;99.90
20070;DHT22;10195;50.868;4.382;2023-11-19T07:29:37;12.20;99.90
20070;DHT22;10195;50.868;4.382;2023-11-19T07:32:03;12.10;99.90
20070;DHT22;10195;50.868;4.382;2023-11-19T07:34:30;12.20;99.90
20070;DHT22;10195;50.868;4.382;2023-11-19T07:36:56;12.20;99.90
20070;DHT22;10195;50.868;4.382;2023-11-19T07:39:25;12.20;99.90
20070;DHT22;10195;50.868;4.382;2023-11-19T07:41:50;12.20;99.90
20070;DHT22;10195;50.868;4.382;2023-11-19T07:44:16;12.30;99.90
20070;DHT22;10195;50.868;4.382;2023-11-19T07:46:42;12.20;99.90
20070;DHT22;10195;50.868;4.382;2023-11-19T07:49:10;12.20;99.90
20070;DHT22;10195;50.868;4.382;2023-11-19T07:51:36;12.20;99.90
20070;DHT22;10195;50.868;4.382;2023-11-19T07:54:02;12.30;99.90
20070;DHT22;10195;50.868;4.382;2023-11-19T07:56:27;12.30;99.90
20070;DHT22;10195;50.868;4.382;2023-11-19T07:58:56;12.40;99.90
20070;DHT22;10195;50.868;4.382;2023-11-19T08:01:21;12.40;99.90
20070;DHT22;10195;50.868;4.382;2023-11-19T08:03:49;12.50;99.90
20070;DHT22;10195;50.868;4.382;2023-11-19T08:06:14;12.60;99.90
20070;DHT22;10195;50.868;4.382;2023-11-19T08:08:40;12.50;99.90
20070;DHT22;10195;50.868;4.382;2023-11-19T08:11:06;12.50;99.90
20070;DHT22;10195;50.868;4.382;2023-11-19T08:13:31;12.60;99.90
20070;DHT22;10195;50.868;4.382;2023-11-19T08:15:57;12.70;99.90
20070;DHT22;10195;50.868;4.382;2023-11-19T08:18:24;12.80;99.90
20070;DHT22;10195;50.868;4.382;2023-11-19T08:20:49;12.80;99.90
20070;DHT22;10195;50.868;4.382;2023-11-19T08:23:18;12.80;99.90
20070;DHT22;10195;50.868;4.382;2023-11-19T08:25:44;12.80;99.90
20070;DHT22;10195;50.868;4.382;2023-11-19T08:28:10;12.90;99.90
20070;DHT22;10195;50.868;4.382;2023-11-19T08:30:35;13.00;99.90
20070;DHT22;10195;50.868;4.382;2023-11-19T08:33:01;13.10;99.90
20070;DHT22;10195;50.868;4.382;2023-11-19T08:35:31;13.10;99.90
20070;DHT22;10195;50.868;4.382;2023-11-19T08:37:57;13.20;99.90
20070;DHT22;10195;50.868;4.382;2023-11-19T08:40:24;13.10;99.90
20070;DHT22;10195;50.868;4.382;2023-11-19T08:42:51;13.10;99.90
20070;DHT22;10195;50.868;4.382;2023-11-19T08:45:16;13.10;99.90
20070;DHT22;10195;50.868;4.382;2023-11-19T08:47:42;13.00;99.90
20070;DHT22;10195;50.868;4.382;2023-11-19T08:50:08;13.00;99.90
20070;DHT22;10195;50.868;4.382;2023-11-19T08:52:34;12.90;99.90
20070;DHT22;10195;50.868;4.382;2023-11-19T08:55:00;12.70;99.90
20070;DHT22;10195;50.868;4.382;2023-11-19T08:57:26;12.70;99.90
20070;DHT22;10195;50.868;4.382;2023-11-19T08:59:51;12.60;99.90
20070;DHT22;10195;50.868;4.382;2023-11-19T09:02:17;12.70;99.90
20070;DHT22;10195;50.868;4.382;2023-11-19T09:04:44;12.80;99.90
20070;DHT22;10195;50.868;4.382;2023-11-19T09:07:09;12.80;99.90
20070;DHT22;10195;50.868;4.382;2023-11-19T09:09:35;12.90;99.90
20070;DHT22;10195;50.868;4.382;2023-11-19T09:12:02;13.00;99.90
20070;DHT22;10195;50.868;4.382;2023-11-19T09:14:29;13.00;99.90
20070;DHT22;10195;50.868;4.382;2023-11-19T09:16:56;13.10;99.90
20070;DHT22;10195;50.868;4.382;2023-11-19T09:19:22;13.30;99.90
20070;DHT22;10195;50.868;4.382;2023-11-19T09:21:47;13.50;99.90
20070;DHT22;10195;50.868;4.382;2023-11-19T09:24:15;13.70;99.90
20070;DHT22;10195;50.868;4.382;2023-11-19T09:26:41;13.90;99.90
20070;DHT22;10195;50.868;4.382;2023-11-19T09:29:10;14.20;99.90
20070;DHT22;10195;50.868;4.382;2023-11-19T09:31:38;14.50;99.90
20070;DHT22;10195;50.868;4.382;2023-11-19T09:34:04;14.80;99.90
20070;DHT22;10195;50.868;4.382;2023-11-19T09:36:30;14.70;99.90
20070;DHT22;10195;50.868;4.382;2023-11-19T09:38:56;14.30;99.90
20070;DHT22;10195;50.868;4.382;2023-11-19T09:41:23;14.30;99.90
20070;DHT22;10195;50.868;4.382;2023-11-19T09:43:50;14.30;99.90
20070;DHT22;10195;50.868;4.382;2023-11-19T09:46:16;14.40;99.90
20070;DHT22;10195;50.868;4.382;2023-11-19T09:48:43;14.40;99.90
20070;DHT22;10195;50.868;4.382;2023-11-19T09:51:11;14.40;99.90
20070;DHT22;10195;50.868;4.382;2023-11-19T09:53:37;14.40;99.90
20070;DHT22;10195;50.868;4.382;2023-11-19T09:56:04;14.70;99.90
20070;DHT22;10195;50.868;4.382;2023-11-19T09:58:31;15.00;99.90
20070;DHT22;10195;50.868;4.382;2023-11-19T10:00:57;15.30;99.90
20070;DHT22;10195;50.868;4.382;2023-11-19T10:03:32;15.50;99.90
20070;DHT22;10195;50.868;4.382;2023-11-19T10:05:58;15.40;99.90
20070;DHT22;10195;50.868;4.382;2023-11-19T10:08:24;15.20;99.90
20070;DHT22;10195;50.868;4.382;2023-11-19T10:10:50;15.20;99.90
20070;DHT22;10195;50.868;4.382;2023-11-19T10:13:17;14.80;99.90
20070;DHT22;10195;50.868;4.382;2023-11-19T10:15:43;14.80;99.90
20070;DHT22;10195;50.868;4.382;2023-11-19T10:18:09;14.60;99.90
20070;DHT22;10195;50.868;4.382;2023-11-19T10:20:41;14.50;99.90
20070;DHT22;10195;50.868;4.382;2023-11-19T10:23:07;14.60;99.90
20070;DHT22;10195;50.868;4.382;2023-11-19T10:25:33;14.80;99.90
20070;DHT22;10195;50.868;4.382;2023-11-19T10:27:59;14.90;99.90
20070;DHT22;10195;50.868;4.382;2023-11-19T10:30:30;15.10;99.90
20070;DHT22;10195;50.868;4.382;2023-11-19T10:35:34;15.00;99.90
20070;DHT22;10195;50.868;4.382;2023-11-19T10:38:01;15.00;99.90
20070;DHT22;10195;50.868;4.382;2023-11-19T10:40:39;14.90;99.90
20070;DHT22;10195;50.868;4.382;2023-11-19T10:43:05;14.70;99.90
20070;DHT22;10195;50.868;4.382;2023-11-19T10:45:33;14.50;99.90
20070;DHT22;10195;50.868;4.382;2023-11-19T10:47:59;14.40;99.90
20070;DHT22;10195;50.868;4.382;2023-11-19T10:50:26;14.20;99.90
20070;DHT22;10195;50.868;4.382;2023-11-19T10:52:56;14.30;99.90
20070;DHT22;10195;50.868;4.382;2023-11-19T10:55:30;14.20;99.90
20070;DHT22;10195;50.868;4.382;2023-11-19T10:58:02;14.30;99.90
20070;DHT22;10195;50.868;4.382;2023-11-19T11:03:25;14.80;99.90
20070;DHT22;10195;50.868;4.382;2023-11-19T11:05:53;15.00;99.90
20070;DHT22;10195;50.868;4.382;2023-11-19T11:08:20;14.90;99.90
20070;DHT22;10195;50.868;4.382;2023-11-19T11:10:54;14.80;99.90
20070;DHT22;10195;50.868;4.382;2023-11-19T11:13:22;14.80;99.90
20070;DHT22;10195;50.868;4.382;2023-11-19T11:15:50;14.70;99.90
20070;DHT22;10195;50.868;4.382;2023-11-19T11:18:16;14.60;99.90
20070;DHT22;10195;50.868;4.382;2023-11-19T11:20:46;14.40;99.90
20070;DHT22;10195;50.868;4.382;2023-11-19T11:28:35;14.10;99.90
20070;DHT22;10195;50.868;4.382;2023-11-19T11:37:24;13.90;99.90
20070;DHT22;10195;50.868;4.382;2023-11-19T11:39:29;13.90;99.90
20070;DHT22;10195;50.868;4.382;2023-11-19T11:45:06;13.80;99.90
20070;DHT22;10195;50.868;4.382;2023-11-19T11:50:11;14.20;99.90
20070;DHT22;10195;50.868;4.382;2023-11-19T11:55:35;14.50;99.90
20070;DHT22;10195;50.868;4.382;2023-11-19T11:58:02;14.50;99.90
20070;DHT22;10195;50.868;4.382;2023-11-19T12:03:02;14.80;99.90
20070;DHT22;10195;50.868;4.382;2023-11-19T12:05:28;14.80;99.90
20070;DHT22;10195;50.868;4.382;2023-11-19T12:08:03;14.80;99.90
20070;DHT22;10195;50.868;4.382;2023-11-19T12:10:31;14.90;99.90
20070;DHT22;10195;50.868;4.382;2023-11-19T12:12:59;14.70;99.90
20070;DHT22;10195;50.868;4.382;2023-11-19T12:15:25;14.70;99.90
20070;DHT22;10195;50.868;4.382;2023-11-19T12:17:53;14.80;99.90
20070;DHT22;10195;50.868;4.382;2023-11-19T12:20:21;14.70;99.90
20070;DHT22;10195;50.868;4.382;2023-11-19T12:22:49;14.40;99.90
20070;DHT22;10195;50.868;4.382;2023-11-19T12:25:15;14.30;99.90
20070;DHT22;10195;50.868;4.382;2023-11-19T12:27:52;14.20;99.90
20070;DHT22;10195;50.868;4.382;2023-11-19T12:30:25;14.20;99.90
20070;DHT22;10195;50.868;4.382;2023-11-19T12:32:51;14.10;99.90
20070;DHT22;10195;50.868;4.382;2023-11-19T12:35:19;14.00;99.90
20070;DHT22;10195;50.868;4.382;2023-11-19T12:37:46;14.00;99.90
20070;DHT22;10195;50.868;4.382;2023-11-19T12:40:16;14.00;99.90
20070;DHT22;10195;50.868;4.382;2023-11-19T12:42:48;13.90;99.90
20070;DHT22;10195;50.868;4.382;2023-11-19T12:45:15;13.90;99.90
20070;DHT22;10195;50.868;4.382;2023-11-19T12:47:44;13.80;99.90
20070;DHT22;10195;50.868;4.382;2023-11-19T12:50:13;13.90;99.90
20070;DHT22;10195;50.868;4.382;2023-11-19T12:52:39;13.90;99.90
20070;DHT22;10195;50.868;4.382;2023-11-19T12:57:51;13.90;99.90
20070;DHT22;10195;50.868;4.382;2023-11-19T13:00:30;13.90;99.90
20070;DHT22;10195;50.868;4.382;2023-11-19T13:02:56;13.90;99.90
20070;DHT22;10195;50.868;4.382;2023-11-19T13:05:29;13.90;99.90
20070;DHT22;10195;50.868;4.382;2023-11-19T13:08:02;14.00;99.90
20070;DHT22;10195;50.868;4.382;2023-11-19T13:10:28;13.90;99.90
20070;DHT22;10195;50.868;4.382;2023-11-19T13:13:07;14.00;99.90
20070;DHT22;10195;50.868;4.382;2023-11-19T13:15:34;14.00;99.90
20070;DHT22;10195;50.868;4.382;2023-11-19T13:18:01;14.00;99.90
20070;DHT22;10195;50.868;4.382;2023-11-19T13:20:28;14.00;99.90
20070;DHT22;10195;50.868;4.382;2023-11-19T13:23:04;14.10;99.90
20070;DHT22;10195;50.868;4.382;2023-11-19T13:25:31;14.10;99.90
20070;DHT22;10195;50.868;4.382;2023-11-19T13:27:57;14.10;99.90
20070;DHT22;10195;50.868;4.382;2023-11-19T13:30:23;14.10;99.90
20070;DHT22;10195;50.868;4.382;2023-11-19T13:32:50;14.10;99.90
20070;DHT22;10195;50.868;4.382;2023-11-19T13:35:17;14.10;99.90
20070;DHT22;10195;50.868;4.382;2023-11-19T13:37:46;13.90;99.90
20070;DHT22;10195;50.868;4.382;2023-11-19T13:40:12;13.90;99.90
20070;DHT22;10195;50.868;4.382;2023-11-19T13:42:42;14.00;99.90
20070;DHT22;10195;50.868;4.382;2023-11-19T13:45:08;13.90;99.90
20070;DHT22;10195;50.868;4.382;2023-11-19T13:47:42;13.70;99.90
20070;DHT22;10195;50.868;4.382;2023-11-19T13:50:10;13.70;99.90
20070;DHT22;10195;50.868;4.382;2023-11-19T13:52:37;13.60;99.90
20070;DHT22;10195;50.868;4.382;2023-11-19T13:55:07;13.60;99.90
20070;DHT22;10195;50.868;4.382;2023-11-19T13:57:34;13.50;99.90
20070;DHT22;10195;50.868;4.382;2023-11-19T14:00:02;13.40;99.90
20070;DHT22;10195;50.868;4.382;2023-11-19T14:02:31;13.50;99.90
20070;DHT22;10195;50.868;4.382;2023-11-19T14:04:56;13.50;99.90
20070;DHT22;10195;50.868;4.382;2023-11-19T14:07:22;13.60;99.90
20070;DHT22;10195;50.868;4.382;2023-11-19T14:09:47;13.70;99.90
20070;DHT22;10195;50.868;4.382;2023-11-19T14:12:13;13.70;99.90
20070;DHT22;10195;50.868;4.382;2023-11-19T14:14:39;13.70;99.90
20070;DHT22;10195;50.868;4.382;2023-11-19T14:17:05;13.60;99.90
20070;DHT22;10195;50.868;4.382;2023-11-19T14:19:30;13.70;99.90
20070;DHT22;10195;50.868;4.382;2023-11-19T14:21:56;13.70;99.90
20070;DHT22;10195;50.868;4.382;2023-11-19T14:24:22;13.70;99.90
20070;DHT22;10195;50.868;4.382;2023-11-19T14:26:48;13.80;99.90
20070;DHT22;10195;50.868;4.382;2023-11-19T14:29:15;13.60;99.90
20070;DHT22;10195;50.868;4.382;2023-11-19T14:31:41;13.50;99.90
20070;DHT22;10195;50.868;4.382;2023-11-19T14:34:06;13.50;99.90
20070;DHT22;10195;50.868;4.382;2023-11-19T14:36:32;13.40;99.90
20070;DHT22;10195;50.868;4.382;2023-11-19T14:38:58;13.40;99.90
20070;DHT22;10195;50.868;4.382;2023-11-19T14:41:26;13.40;99.90
20070;DHT22;10195;50.868;4.382;2023-11-19T14:43:52;13.30;99.90
20070;DHT22;10195;50.868;4.382;2023-11-19T14:46:18;13.30;99.90
20070;DHT22;10195;50.868;4.382;2023-11-19T14:48:43;13.30;99.90
20070;DHT22;10195;50.868;4.382;2023-11-19T14:51:10;13.30;99.90
20070;DHT22;10195;50.868;4.382;2023-11-19T14:53:35;13.20;99.90
20070;DHT22;10195;50.868;4.382;2023-11-19T14:56:01;13.20;99.90
20070;DHT22;10195;50.868;4.382;2023-11-19T14:58:27;13.10;99.90
20070;DHT22;10195;50.868;4.382;2023-11-19T15:00:53;13.30;99.90
20070;DHT22;10195;50.868;4.382;2023-11-19T15:03:19;13.30;99.90
20070;DHT22;10195;50.868;4.382;2023-11-19T15:05:48;13.30;99.90
20070;DHT22;10195;50.868;4.382;2023-11-19T15:08:14;13.30;99.90
20070;DHT22;10195;50.868;4.382;2023-11-19T15:10:44;13.20;99.90
20070;DHT22;10195;50.868;4.382;2023-11-19T15:13:10;13.20;99.90
20070;DHT22;10195;50.868;4.382;2023-11-19T15:15:36;13.20;99.90
20070;DHT22;10195;50.868;4.382;2023-11-19T15:18:04;13.30;99.90
20070;DHT22;10195;50.868;4.382;2023-11-19T15:20:30;13.30;99.90
20070;DHT22;10195;50.868;4.382;2023-11-19T15:22:57;13.20;99.90
20070;DHT22;10195;50.868;4.382;2023-11-19T15:25:22;13.10;99.90
20070;DHT22;10195;50.868;4.382;2023-11-19T15:27:48;13.20;99.90
20070;DHT22;10195;50.868;4.382;2023-11-19T15:30:14;13.20;99.90
20070;DHT22;10195;50.868;4.382;2023-11-19T15:32:41;13.20;99.90
20070;DHT22;10195;50.868;4.382;2023-11-19T15:35:08;13.20;99.90
20070;DHT22;10195;50.868;4.382;2023-11-19T15:37:35;13.30;99.90
20070;DHT22;10195;50.868;4.382;2023-11-19T15:40:01;13.30;99.90
20070;DHT22;10195;50.868;4.382;2023-11-19T15:42:29;13.30;99.90
20070;DHT22;10195;50.868;4.382;2023-11-19T15:44:55;13.30;99.90
20070;DHT22;10195;50.868;4.382;2023-11-19T15:47:20;13.40;99.90
20070;DHT22;10195;50.868;4.382;2023-11-19T15:49:47;13.50;99.90
20070;DHT22;10195;50.868;4.382;2023-11-19T15:52:14;13.40;99.90
20070;DHT22;10195;50.868;4.382;2023-11-19T15:54:40;13.30;99.90
20070;DHT22;10195;50.868;4.382;2023-11-19T15:57:06;13.30;99.90
20070;DHT22;10195;50.868;4.382;2023-11-19T15:59:32;13.30;99.90